sensor_id;sensor_type;location;lat;lon;timestamp;pressure;altitude;pressure_sealevel;temperature
67515;BMP280;60646;55.802;37.032;2022-12-07T00:00:28;100824.00;;;-1.22
67515;BMP280;60646;55.802;37.032;2022-12-07T00:02:54;100800.69;;;-1.38
67515;BMP280;60646;55.802;37.032;2022-12-07T00:05:20;100799.59;;;-1.37
67515;BMP280;60646;55.802;37.032;2022-12-07T00:07:45;100823.25;;;-1.22
67515;BMP280;60646;55.802;37.032;2022-12-07T00:10:11;100794.69;;;-1.38
67515;BMP280;60646;55.802;37.032;2022-12-07T00:12:38;100805.19;;;-1.35
67515;BMP280;60646;55.802;37.032;2022-12-07T00:15:04;100793.53;;;-1.41
67515;BMP280;60646;55.802;37.032;2022-12-07T00:17:30;100796.56;;;-1.39
67515;BMP280;60646;55.802;37.032;2022-12-07T00:19:56;100804.47;;;-1.32
67515;BMP280;60646;55.802;37.032;2022-12-07T00:22:21;100808.25;;;-1.29
67515;BMP280;60646;55.802;37.032;2022-12-07T00:24:47;100798.84;;;-1.34
67515;BMP280;60646;55.802;37.032;2022-12-07T00:27:13;100802.19;;;-1.37
67515;BMP280;60646;55.802;37.032;2022-12-07T00:29:39;100807.06;;;-1.35
67515;BMP280;60646;55.802;37.032;2022-12-07T00:32:04;100809.31;;;-1.37
67515;BMP280;60646;55.802;37.032;2022-12-07T00:34:30;100801.81;;;-1.35
67515;BMP280;60646;55.802;37.032;2022-12-07T00:36:56;100799.19;;;-1.39
67515;BMP280;60646;55.802;37.032;2022-12-07T00:39:21;100798.41;;;-1.43
67515;BMP280;60646;55.802;37.032;2022-12-07T00:41:47;100796.16;;;-1.41
67515;BMP280;60646;55.802;37.032;2022-12-07T00:44:13;100806.69;;;-1.37
67515;BMP280;60646;55.802;37.032;2022-12-07T00:46:39;100801.03;;;-1.43
67515;BMP280;60646;55.802;37.032;2022-12-07T00:49:04;100809.66;;;-1.42
67515;BMP280;60646;55.802;37.032;2022-12-07T00:51:30;100802.91;;;-1.40
67515;BMP280;60646;55.802;37.032;2022-12-07T00:53:56;100817.53;;;-1.35
67515;BMP280;60646;55.802;37.032;2022-12-07T00:56:26;100812.69;;;-1.37
67515;BMP280;60646;55.802;37.032;2022-12-07T00:58:54;100812.69;;;-1.37
67515;BMP280;60646;55.802;37.032;2022-12-07T01:01:21;100790.13;;;-1.52
67515;BMP280;60646;55.802;37.032;2022-12-07T01:03:47;100782.19;;;-1.59
67515;BMP280;60646;55.802;37.032;2022-12-07T01:06:17;100804.38;;;-1.46
67515;BMP280;60646;55.802;37.032;2022-12-07T01:08:44;100804.75;;;-1.47
67515;BMP280;60646;55.802;37.032;2022-12-07T01:11:13;100802.81;;;-1.54
67515;BMP280;60646;55.802;37.032;2022-12-07T01:13:41;100814.06;;;-1.50
67515;BMP280;60646;55.802;37.032;2022-12-07T01:16:08;100795.28;;;-1.62
67515;BMP280;60646;55.802;37.032;2022-12-07T01:18:35;100795.97;;;-1.69
67515;BMP280;60646;55.802;37.032;2022-12-07T01:21:24;100812.94;;;-1.52
67515;BMP280;60646;55.802;37.032;2022-12-07T01:23:49;100781.75;;;-1.68
67515;BMP280;60646;55.802;37.032;2022-12-07T01:26:18;100788.13;;;-1.69
67515;BMP280;60646;55.802;37.032;2022-12-07T01:28:44;100803.50;;;-1.64
67515;BMP280;60646;55.802;37.032;2022-12-07T01:31:15;100805.00;;;-1.63
67515;BMP280;60646;55.802;37.032;2022-12-07T01:33:45;100785.44;;;-1.76
67515;BMP280;60646;55.802;37.032;2022-12-07T01:36:15;100793.75;;;-1.67
67515;BMP280;60646;55.802;37.032;2022-12-07T01:38:43;100771.09;;;-1.89
67515;BMP280;60646;55.802;37.032;2022-12-07T01:41:09;100788.38;;;-1.81
67515;BMP280;60646;55.802;37.032;2022-12-07T01:43:35;100789.16;;;-1.77
67515;BMP280;60646;55.802;37.032;2022-12-07T01:46:03;100771.09;;;-1.89
67515;BMP280;60646;55.802;37.032;2022-12-07T01:48:38;100792.53;;;-1.80
67515;BMP280;60646;55.802;37.032;2022-12-07T01:51:09;100776.66;;;-1.94
67515;BMP280;60646;55.802;37.032;2022-12-07T01:53:38;100774.03;;;-1.94
67515;BMP280;60646;55.802;37.032;2022-12-07T01:56:07;100770.97;;;-2.03
67515;BMP280;60646;55.802;37.032;2022-12-07T01:58:33;100772.50;;;-2.02
67515;BMP280;60646;55.802;37.032;2022-12-07T02:01:00;100763.44;;;-2.08
67515;BMP280;60646;55.802;37.032;2022-12-07T02:03:34;100764.19;;;-2.11
67515;BMP280;60646;55.802;37.032;2022-12-07T02:06:02;100770.94;;;-2.10
67515;BMP280;60646;55.802;37.032;2022-12-07T02:08:28;100770.94;;;-2.10
67515;BMP280;60646;55.802;37.032;2022-12-07T02:10:54;100763.41;;;-2.15
67515;BMP280;60646;55.802;37.032;2022-12-07T02:13:26;100759.59;;;-2.22
67515;BMP280;60646;55.802;37.032;2022-12-07T02:15:59;100777.66;;;-2.09
67515;BMP280;60646;55.802;37.032;2022-12-07T02:21:27;100775.38;;;-2.14
67515;BMP280;60646;55.802;37.032;2022-12-07T02:26:51;100762.63;;;-2.20
67515;BMP280;60646;55.802;37.032;2022-12-07T02:29:27;100763.25;;;-2.30
67515;BMP280;60646;55.802;37.032;2022-12-07T02:32:28;100737.66;;;-2.47
67515;BMP280;60646;55.802;37.032;2022-12-07T02:35:17;100763.59;;;-2.31
67515;BMP280;60646;55.802;37.032;2022-12-07T02:38:04;100749.97;;;-2.51
67515;BMP280;60646;55.802;37.032;2022-12-07T02:43:24;100766.44;;;-2.47
67515;BMP280;60646;55.802;37.032;2022-12-07T02:45:54;100747.16;;;-2.65
67515;BMP280;60646;55.802;37.032;2022-12-07T02:48:20;100759.84;;;-2.67
67515;BMP280;60646;55.802;37.032;2022-12-07T02:50:52;100773.06;;;-2.56
67515;BMP280;60646;55.802;37.032;2022-12-07T02:53:36;100753.13;;;-2.68
67515;BMP280;60646;55.802;37.032;2022-12-07T03:01:53;100747.75;;;-2.82
67515;BMP280;60646;55.802;37.032;2022-12-07T03:07:46;100754.53;;;-2.74
67515;BMP280;60646;55.802;37.032;2022-12-07T03:10:24;100740.91;;;-2.90
67515;BMP280;60646;55.802;37.032;2022-12-07T03:13:07;100750.63;;;-2.91
67515;BMP280;60646;55.802;37.032;2022-12-07T03:18:16;100750.53;;;-2.94
67515;BMP280;60646;55.802;37.032;2022-12-07T03:20:44;100747.53;;;-2.96
67515;BMP280;60646;55.802;37.032;2022-12-07T03:23:12;100737.72;;;-3.07
67515;BMP280;60646;55.802;37.032;2022-12-07T03:25:45;100757.19;;;-3.00
67515;BMP280;60646;55.802;37.032;2022-12-07T03:28:14;100745.53;;;-3.07
67515;BMP280;60646;55.802;37.032;2022-12-07T03:30:50;100744.34;;;-3.13
67515;BMP280;60646;55.802;37.032;2022-12-07T03:33:27;100737.53;;;-3.21
67515;BMP280;60646;55.802;37.032;2022-12-07T03:35:58;100750.69;;;-3.14
67515;BMP280;60646;55.802;37.032;2022-12-07T03:38:36;100732.19;;;-3.28
67515;BMP280;60646;55.802;37.032;2022-12-07T03:41:08;100750.19;;;-3.23
67515;BMP280;60646;55.802;37.032;2022-12-07T03:43:36;100741.47;;;-3.30
67515;BMP280;60646;55.802;37.032;2022-12-07T03:48:58;100746.25;;;-3.36
67515;BMP280;60646;55.802;37.032;2022-12-07T03:51:38;100721.72;;;-3.54
67515;BMP280;60646;55.802;37.032;2022-12-07T03:54:15;100718.72;;;-3.56
67515;BMP280;60646;55.802;37.032;2022-12-07T03:56:44;100719.78;;;-3.61
67515;BMP280;60646;55.802;37.032;2022-12-07T03:59:11;100733.69;;;-3.53
67515;BMP280;60646;55.802;37.032;2022-12-07T04:01:41;100723.41;;;-3.69
67515;BMP280;60646;55.802;37.032;2022-12-07T04:04:07;100718.09;;;-3.72
67515;BMP280;60646;55.802;37.032;2022-12-07T04:06:33;100714.28;;;-3.78
67515;BMP280;60646;55.802;37.032;2022-12-07T04:08:59;100710.88;;;-3.82
67515;BMP280;60646;55.802;37.032;2022-12-07T04:11:24;100708.25;;;-3.82
67515;BMP280;60646;55.802;37.032;2022-12-07T04:13:50;100718.69;;;-3.82
67515;BMP280;60646;55.802;37.032;2022-12-07T04:16:34;100709.66;;;-3.89
67515;BMP280;60646;55.802;37.032;2022-12-07T04:19:00;100716.38;;;-3.88
67515;BMP280;60646;55.802;37.032;2022-12-07T04:21:26;100709.25;;;-3.91
67515;BMP280;60646;55.802;37.032;2022-12-07T04:23:52;100696.78;;;-4.01
67515;BMP280;60646;55.802;37.032;2022-12-07T04:26:18;100712.56;;;-3.94
67515;BMP280;60646;55.802;37.032;2022-12-07T04:28:43;100704.25;;;-3.99
67515;BMP280;60646;55.802;37.032;2022-12-07T04:31:09;100708.31;;;-4.02
67515;BMP280;60646;55.802;37.032;2022-12-07T04:33:35;100716.94;;;-3.98
67515;BMP280;60646;55.802;37.032;2022-12-07T04:36:01;100706.03;;;-4.03
67515;BMP280;60646;55.802;37.032;2022-12-07T04:38:26;100721.06;;;-3.97
67515;BMP280;60646;55.802;37.032;2022-12-07T04:40:52;100700.31;;;-4.12
67515;BMP280;60646;55.802;37.032;2022-12-07T04:43:18;100698.06;;;-4.14
67515;BMP280;60646;55.802;37.032;2022-12-07T04:45:47;100684.53;;;-4.19
67515;BMP280;60646;55.802;37.032;2022-12-07T04:48:13;100670.94;;;-4.32
67515;BMP280;60646;55.802;37.032;2022-12-07T04:50:39;100719.84;;;-4.03
67515;BMP280;60646;55.802;37.032;2022-12-07T04:53:05;100716.84;;;-4.05
67515;BMP280;60646;55.802;37.032;2022-12-07T04:55:34;100711.50;;;-4.12
67515;BMP280;60646;55.802;37.032;2022-12-07T04:58:00;100704.34;;;-4.15
67515;BMP280;60646;55.802;37.032;2022-12-07T05:00:25;100708.41;;;-4.17
67515;BMP280;60646;55.802;37.032;2022-12-07T05:02:51;100706.53;;;-4.17
67515;BMP280;60646;55.802;37.032;2022-12-07T05:05:17;100710.63;;;-4.19
67515;BMP280;60646;55.802;37.032;2022-12-07T05:07:42;100703.84;;;-4.24
67515;BMP280;60646;55.802;37.032;2022-12-07T05:10:08;100707.97;;;-4.23
67515;BMP280;60646;55.802;37.032;2022-12-07T05:12:34;100706.03;;;-4.26
67515;BMP280;60646;55.802;37.032;2022-12-07T05:15:00;100696.25;;;-4.33
67515;BMP280;60646;55.802;37.032;2022-12-07T05:17:26;100719.19;;;-4.19
67515;BMP280;60646;55.802;37.032;2022-12-07T05:19:54;100706.03;;;-4.26
67515;BMP280;60646;55.802;37.032;2022-12-07T05:22:20;100709.00;;;-4.27
67515;BMP280;60646;55.802;37.032;2022-12-07T05:24:46;100709.72;;;-4.27
67515;BMP280;60646;55.802;37.032;2022-12-07T05:27:12;100693.13;;;-4.38
67515;BMP280;60646;55.802;37.032;2022-12-07T05:29:38;100708.16;;;-4.32
67515;BMP280;60646;55.802;37.032;2022-12-07T05:32:04;100710.44;;;-4.30
67515;BMP280;60646;55.802;37.032;2022-12-07T05:34:30;100717.22;;;-4.25
67515;BMP280;60646;55.802;37.032;2022-12-07T05:36:55;100705.91;;;-4.33
67515;BMP280;60646;55.802;37.032;2022-12-07T05:39:21;100688.63;;;-4.41
67515;BMP280;60646;55.802;37.032;2022-12-07T05:41:47;100717.97;;;-4.25
67515;BMP280;60646;55.802;37.032;2022-12-07T05:44:31;100718.72;;;-4.24
67515;BMP280;60646;55.802;37.032;2022-12-07T05:46:57;100713.47;;;-4.28
67515;BMP280;60646;55.802;37.032;2022-12-07T05:49:22;100716.06;;;-4.28
67515;BMP280;60646;55.802;37.032;2022-12-07T05:51:48;100706.72;;;-4.29
67515;BMP280;60646;55.802;37.032;2022-12-07T05:54:14;100701.34;;;-4.36
67515;BMP280;60646;55.802;37.032;2022-12-07T05:56:40;100713.16;;;-4.23
67515;BMP280;60646;55.802;37.032;2022-12-07T05:59:15;100713.50;;;-4.24
67515;BMP280;60646;55.802;37.032;2022-12-07T06:01:58;100709.06;;;-4.24
67515;BMP280;60646;55.802;37.032;2022-12-07T06:04:26;100698.50;;;-4.31
67515;BMP280;60646;55.802;37.032;2022-12-07T06:06:53;100713.16;;;-4.23
67515;BMP280;60646;55.802;37.032;2022-12-07T06:09:20;100694.03;;;-4.31
67515;BMP280;60646;55.802;37.032;2022-12-07T06:11:46;100693.22;;;-4.35
67515;BMP280;60646;55.802;37.032;2022-12-07T06:14:30;100683.88;;;-4.36
67515;BMP280;60646;55.802;37.032;2022-12-07T06:16:56;100697.09;;;-4.25
67515;BMP280;60646;55.802;37.032;2022-12-07T06:19:22;100679.00;;;-4.37
67515;BMP280;60646;55.802;37.032;2022-12-07T06:21:54;100695.66;;;-4.22
67515;BMP280;60646;55.802;37.032;2022-12-07T06:24:20;100699.75;;;-4.21
67515;BMP280;60646;55.802;37.032;2022-12-07T06:26:46;100685.59;;;-4.24
67515;BMP280;60646;55.802;37.032;2022-12-07T06:29:13;100701.31;;;-4.17
67515;BMP280;60646;55.802;37.032;2022-12-07T06:31:39;100701.88;;;-4.08
67515;BMP280;60646;55.802;37.032;2022-12-07T06:34:09;100699.97;;;-4.11
67515;BMP280;60646;55.802;37.032;2022-12-07T06:36:43;100695.16;;;-4.09
67515;BMP280;60646;55.802;37.032;2022-12-07T06:39:40;100668.00;;;-4.27
67515;BMP280;60646;55.802;37.032;2022-12-07T06:42:06;100693.75;;;-4.03
67515;BMP280;60646;55.802;37.032;2022-12-07T06:44:32;100683.63;;;-4.08
67515;BMP280;60646;55.802;37.032;2022-12-07T06:46:58;100685.47;;;-4.08
67515;BMP280;60646;55.802;37.032;2022-12-07T06:49:24;100689.19;;;-4.09
67515;BMP280;60646;55.802;37.032;2022-12-07T06:51:49;100681.81;;;-4.04
67515;BMP280;60646;55.802;37.032;2022-12-07T06:54:17;100695.38;;;-3.95
67515;BMP280;60646;55.802;37.032;2022-12-07T06:56:42;100679.66;;;-3.98
67515;BMP280;60646;55.802;37.032;2022-12-07T06:59:08;100688.66;;;-3.96
67515;BMP280;60646;55.802;37.032;2022-12-07T07:01:35;100698.50;;;-3.85
67515;BMP280;60646;55.802;37.032;2022-12-07T07:04:01;100677.53;;;-3.93
67515;BMP280;60646;55.802;37.032;2022-12-07T07:06:27;100696.34;;;-3.80
67515;BMP280;60646;55.802;37.032;2022-12-07T07:08:53;100676.03;;;-3.94
67515;BMP280;60646;55.802;37.032;2022-12-07T07:11:19;100685.88;;;-3.83
67515;BMP280;60646;55.802;37.032;2022-12-07T07:13:45;100700.25;;;-3.70
67515;BMP280;60646;55.802;37.032;2022-12-07T07:16:11;100682.97;;;-3.78
67515;BMP280;60646;55.802;37.032;2022-12-07T07:18:36;100677.03;;;-3.75
67515;BMP280;60646;55.802;37.032;2022-12-07T07:21:03;100683.88;;;-3.67
67515;BMP280;60646;55.802;37.032;2022-12-07T07:23:29;100692.97;;;-3.58
67515;BMP280;60646;55.802;37.032;2022-12-07T07:25:55;100671.63;;;-3.63
67515;BMP280;60646;55.802;37.032;2022-12-07T07:28:22;100693.00;;;-3.54
67515;BMP280;60646;55.802;37.032;2022-12-07T07:30:48;100684.09;;;-3.50
67515;BMP280;60646;55.802;37.032;2022-12-07T07:33:14;100660.09;;;-3.62
67515;BMP280;60646;55.802;37.032;2022-12-07T07:35:40;100655.72;;;-3.55
67515;BMP280;60646;55.802;37.032;2022-12-07T07:38:06;100652.75;;;-3.53
67515;BMP280;60646;55.802;37.032;2022-12-07T07:40:42;100679.84;;;-3.35
67515;BMP280;60646;55.802;37.032;2022-12-07T07:43:09;100662.63;;;-3.39
67515;BMP280;60646;55.802;37.032;2022-12-07T07:45:34;100660.78;;;-3.39
67515;BMP280;60646;55.802;37.032;2022-12-07T07:48:00;100647.75;;;-3.35
67515;BMP280;60646;55.802;37.032;2022-12-07T07:50:26;100643.66;;;-3.36
67515;BMP280;60646;55.802;37.032;2022-12-07T07:52:51;100655.31;;;-3.27
67515;BMP280;60646;55.802;37.032;2022-12-07T07:55:18;100644.59;;;-3.22
67515;BMP280;60646;55.802;37.032;2022-12-07T07:57:43;100651.00;;;-3.16
67515;BMP280;60646;55.802;37.032;2022-12-07T08:00:13;100666.06;;;-3.06
67515;BMP280;60646;55.802;37.032;2022-12-07T08:02:40;100645.06;;;-3.13
67515;BMP280;60646;55.802;37.032;2022-12-07T08:05:08;100627.50;;;-3.16
67515;BMP280;60646;55.802;37.032;2022-12-07T08:07:34;100644.44;;;-3.03
67515;BMP280;60646;55.802;37.032;2022-12-07T08:10:00;100647.44;;;-3.00
67515;BMP280;60646;55.802;37.032;2022-12-07T08:12:26;100648.22;;;-2.96
67515;BMP280;60646;55.802;37.032;2022-12-07T08:14:51;100632.47;;;-3.04
67515;BMP280;60646;55.802;37.032;2022-12-07T08:17:17;100647.63;;;-2.86
67515;BMP280;60646;55.802;37.032;2022-12-07T08:19:43;100634.91;;;-2.88
67515;BMP280;60646;55.802;37.032;2022-12-07T08:22:09;100634.19;;;-2.85
67515;BMP280;60646;55.802;37.032;2022-12-07T08:24:35;100645.53;;;-2.70
67515;BMP280;60646;55.802;37.032;2022-12-07T08:27:02;100632.78;;;-2.75
67515;BMP280;60646;55.802;37.032;2022-12-07T08:29:28;100648.19;;;-2.63
67515;BMP280;60646;55.802;37.032;2022-12-07T08:31:54;100629.88;;;-2.67
67515;BMP280;60646;55.802;37.032;2022-12-07T08:34:20;100642.28;;;-2.60
67515;BMP280;60646;55.802;37.032;2022-12-07T08:36:46;100635.56;;;-2.61
67515;BMP280;60646;55.802;37.032;2022-12-07T08:39:11;100632.94;;;-2.61
67515;BMP280;60646;55.802;37.032;2022-12-07T08:41:37;100616.81;;;-2.63
67515;BMP280;60646;55.802;37.032;2022-12-07T08:44:03;100629.25;;;-2.56
67515;BMP280;60646;55.802;37.032;2022-12-07T08:46:42;100640.56;;;-2.42
67515;BMP280;60646;55.802;37.032;2022-12-07T08:49:18;100623.28;;;-2.50
67515;BMP280;60646;55.802;37.032;2022-12-07T08:51:45;100623.38;;;-2.43
67515;BMP280;60646;55.802;37.032;2022-12-07T08:54:15;100634.25;;;-2.37
67515;BMP280;60646;55.802;37.032;2022-12-07T08:56:43;100617.81;;;-2.38
67515;BMP280;60646;55.802;37.032;2022-12-07T08:59:09;100621.56;;;-2.32
67515;BMP280;60646;55.802;37.032;2022-12-07T09:01:35;100628.03;;;-2.22
67515;BMP280;60646;55.802;37.032;2022-12-07T09:04:01;100616.03;;;-2.27
67515;BMP280;60646;55.802;37.032;2022-12-07T09:06:27;100608.25;;;-2.20
67515;BMP280;60646;55.802;37.032;2022-12-07T09:08:55;100612.00;;;-2.13
67515;BMP280;60646;55.802;37.032;2022-12-07T09:11:23;100604.13;;;-2.21
67515;BMP280;60646;55.802;37.032;2022-12-07T09:13:49;100607.91;;;-2.11
67515;BMP280;60646;55.802;37.032;2022-12-07T09:16:14;100599.69;;;-2.13
67515;BMP280;60646;55.802;37.032;2022-12-07T09:18:40;100598.59;;;-2.08
67515;BMP280;60646;55.802;37.032;2022-12-07T09:21:07;100589.25;;;-2.09
67515;BMP280;60646;55.802;37.032;2022-12-07T09:23:33;100579.56;;;-2.05
67515;BMP280;60646;55.802;37.032;2022-12-07T09:26:00;100603.56;;;-1.89
67515;BMP280;60646;55.802;37.032;2022-12-07T09:28:26;100587.81;;;-1.96
67515;BMP280;60646;55.802;37.032;2022-12-07T09:30:51;100573.97;;;-1.97
67515;BMP280;60646;55.802;37.032;2022-12-07T09:33:17;100588.69;;;-1.78
67515;BMP280;60646;55.802;37.032;2022-12-07T09:35:47;100594.69;;;-1.74
67515;BMP280;60646;55.802;37.032;2022-12-07T09:38:14;100571.84;;;-1.81
67515;BMP280;60646;55.802;37.032;2022-12-07T09:40:41;100572.25;;;-1.75
67515;BMP280;60646;55.802;37.032;2022-12-07T09:43:18;100573.00;;;-1.74
67515;BMP280;60646;55.802;37.032;2022-12-07T09:45:46;100558.00;;;-1.81
67515;BMP280;60646;55.802;37.032;2022-12-07T09:48:32;100589.53;;;-1.56
67515;BMP280;60646;55.802;37.032;2022-12-07T09:51:00;100563.69;;;-1.65
67515;BMP280;60646;55.802;37.032;2022-12-07T09:53:37;100569.31;;;-1.56
67515;BMP280;60646;55.802;37.032;2022-12-07T09:56:20;100565.94;;;-1.56
67515;BMP280;60646;55.802;37.032;2022-12-07T09:59:14;100578.69;;;-1.44
67515;BMP280;60646;55.802;37.032;2022-12-07T10:01:42;100565.59;;;-1.48
67515;BMP280;60646;55.802;37.032;2022-12-07T10:04:14;100572.34;;;-1.43
67515;BMP280;60646;55.802;37.032;2022-12-07T10:06:42;100561.09;;;-1.51
67515;BMP280;60646;55.802;37.032;2022-12-07T10:09:16;100565.25;;;-1.43
67515;BMP280;60646;55.802;37.032;2022-12-07T10:12:17;100583.25;;;-1.30
67515;BMP280;60646;55.802;37.032;2022-12-07T10:15:01;100569.38;;;-1.35
67515;BMP280;60646;55.802;37.032;2022-12-07T10:17:41;100567.94;;;-1.28
67515;BMP280;60646;55.802;37.032;2022-12-07T10:20:23;100561.19;;;-1.26
67515;BMP280;60646;55.802;37.032;2022-12-07T10:22:56;100565.66;;;-1.26
67515;BMP280;60646;55.802;37.032;2022-12-07T10:25:27;100563.03;;;-1.34
67515;BMP280;60646;55.802;37.032;2022-12-07T10:27:58;100551.03;;;-1.35
67515;BMP280;60646;55.802;37.032;2022-12-07T10:30:25;100541.72;;;-1.32
67515;BMP280;60646;55.802;37.032;2022-12-07T10:32:51;100544.69;;;-1.37
67515;BMP280;60646;55.802;37.032;2022-12-07T10:35:28;100533.44;;;-1.34
67515;BMP280;60646;55.802;37.032;2022-12-07T10:37:57;100538.69;;;-1.34
67515;BMP280;60646;55.802;37.032;2022-12-07T10:40:33;100539.47;;;-1.26
67515;BMP280;60646;55.802;37.032;2022-12-07T10:43:06;100534.97;;;-1.26
67515;BMP280;60646;55.802;37.032;2022-12-07T11:00:03;100511.75;;;-1.31
67515;BMP280;60646;55.802;37.032;2022-12-07T11:11:52;100514.00;;;-1.22
67515;BMP280;60646;55.802;37.032;2022-12-07T11:14:27;100506.53;;;-1.20
67515;BMP280;60646;55.802;37.032;2022-12-07T11:17:05;100499.44;;;-1.16
67515;BMP280;60646;55.802;37.032;2022-12-07T11:22:22;100480.69;;;-1.25
67515;BMP280;60646;55.802;37.032;2022-12-07T11:25:16;100499.44;;;-1.09
67515;BMP280;60646;55.802;37.032;2022-12-07T11:33:33;100473.59;;;-1.21
67515;BMP280;60646;55.802;37.032;2022-12-07T11:36:43;100490.81;;;-1.06
67515;BMP280;60646;55.802;37.032;2022-12-07T11:39:23;100467.63;;;-1.18
67515;BMP280;60646;55.802;37.032;2022-12-07T11:42:06;100453.00;;;-1.19
67515;BMP280;60646;55.802;37.032;2022-12-07T11:44:52;100469.09;;;-1.10
67515;BMP280;60646;55.802;37.032;2022-12-07T11:55:57;100473.59;;;-1.18
67515;BMP280;60646;55.802;37.032;2022-12-07T12:04:05;100471.34;;;-1.19
67515;BMP280;60646;55.802;37.032;2022-12-07T12:06:32;100469.09;;;-1.24
67515;BMP280;60646;55.802;37.032;2022-12-07T12:17:52;100471.34;;;-1.26
67515;BMP280;60646;55.802;37.032;2022-12-07T12:22:53;100438.38;;;-1.42
67515;BMP280;60646;55.802;37.032;2022-12-07T12:25:24;100454.84;;;-1.34
67515;BMP280;60646;55.802;37.032;2022-12-07T12:27:56;100436.88;;;-1.43
67515;BMP280;60646;55.802;37.032;2022-12-07T12:42:54;100450.72;;;-1.53
67515;BMP280;60646;55.802;37.032;2022-12-07T12:45:26;100423.38;;;-1.73
67515;BMP280;60646;55.802;37.032;2022-12-07T12:54:04;100443.97;;;-1.64
67515;BMP280;60646;55.802;37.032;2022-12-07T12:56:35;100436.84;;;-1.71
67515;BMP280;60646;55.802;37.032;2022-12-07T12:59:22;100434.22;;;-1.71
67515;BMP280;60646;55.802;37.032;2022-12-07T13:15:51;100434.88;;;-1.95
67515;BMP280;60646;55.802;37.032;2022-12-07T13:29:16;100414.63;;;-2.12
67515;BMP280;60646;55.802;37.032;2022-12-07T13:31:48;100418.00;;;-2.08
67515;BMP280;60646;55.802;37.032;2022-12-07T13:34:34;100415.03;;;-2.10
67515;BMP280;60646;55.802;37.032;2022-12-07T13:37:10;100403.03;;;-2.26
67515;BMP280;60646;55.802;37.032;2022-12-07T13:39:45;100421.75;;;-2.13
67515;BMP280;60646;55.802;37.032;2022-12-07T13:42:22;100421.75;;;-2.16
67515;BMP280;60646;55.802;37.032;2022-12-07T13:44:50;100415.34;;;-2.26
67515;BMP280;60646;55.802;37.032;2022-12-07T13:49:53;100414.59;;;-2.27
67515;BMP280;60646;55.802;37.032;2022-12-07T13:52:27;100413.81;;;-2.31
67515;BMP280;60646;55.802;37.032;2022-12-07T13:57:33;100419.00;;;-2.41
67515;BMP280;60646;55.802;37.032;2022-12-07T14:00:03;100413.38;;;-2.43
67515;BMP280;60646;55.802;37.032;2022-12-07T14:02:34;100404.00;;;-2.55
67515;BMP280;60646;55.802;37.032;2022-12-07T14:05:25;100396.50;;;-2.60
67515;BMP280;60646;55.802;37.032;2022-12-07T14:08:05;100397.94;;;-2.66
67515;BMP280;60646;55.802;37.032;2022-12-07T14:10:33;100428.25;;;-2.58
67515;BMP280;60646;55.802;37.032;2022-12-07T14:13:01;100415.88;;;-2.68
67515;BMP280;60646;55.802;37.032;2022-12-07T14:15:29;100405.00;;;-2.77
67515;BMP280;60646;55.802;37.032;2022-12-07T14:17:57;100422.97;;;-2.65
67515;BMP280;60646;55.802;37.032;2022-12-07T14:20:36;100426.69;;;-2.66
67515;BMP280;60646;55.802;37.032;2022-12-07T14:23:03;100399.72;;;-2.84
67515;BMP280;60646;55.802;37.032;2022-12-07T14:28:26;100411.66;;;-2.83
67515;BMP280;60646;55.802;37.032;2022-12-07T14:30:51;100414.66;;;-2.81
67515;BMP280;60646;55.802;37.032;2022-12-07T14:33:18;100421.41;;;-2.77
67515;BMP280;60646;55.802;37.032;2022-12-07T14:35:44;100413.13;;;-2.89
67515;BMP280;60646;55.802;37.032;2022-12-07T14:38:10;100390.66;;;-2.97
67515;BMP280;60646;55.802;37.032;2022-12-07T14:40:35;100403.78;;;-2.90
67515;BMP280;60646;55.802;37.032;2022-12-07T14:43:26;100407.91;;;-2.86
67515;BMP280;60646;55.802;37.032;2022-12-07T14:45:52;100388.69;;;-3.11
67515;BMP280;60646;55.802;37.032;2022-12-07T14:48:17;100395.09;;;-3.01
67515;BMP280;60646;55.802;37.032;2022-12-07T14:50:52;100397.72;;;-3.01
67515;BMP280;60646;55.802;37.032;2022-12-07T14:53:22;100383.88;;;-3.09
67515;BMP280;60646;55.802;37.032;2022-12-07T14:55:51;100388.69;;;-3.11
67515;BMP280;60646;55.802;37.032;2022-12-07T14:58:17;100407.06;;;-3.00
67515;BMP280;60646;55.802;37.032;2022-12-07T15:00:43;100401.00;;;-3.12
67515;BMP280;60646;55.802;37.032;2022-12-07T15:03:09;100378.56;;;-3.20
67515;BMP280;60646;55.802;37.032;2022-12-07T15:05:35;100395.03;;;-3.09
67515;BMP280;60646;55.802;37.032;2022-12-07T15:08:01;100385.31;;;-3.12
67515;BMP280;60646;55.802;37.032;2022-12-07T15:10:30;100406.28;;;-3.05
67515;BMP280;60646;55.802;37.032;2022-12-07T15:12:58;100388.69;;;-3.15
67515;BMP280;60646;55.802;37.032;2022-12-07T15:15:43;100397.63;;;-3.12
67515;BMP280;60646;55.802;37.032;2022-12-07T15:18:09;100389.44;;;-3.14
67515;BMP280;60646;55.802;37.032;2022-12-07T15:20:35;100389.38;;;-3.18
67515;BMP280;60646;55.802;37.032;2022-12-07T15:23:00;100371.00;;;-3.32
67515;BMP280;60646;55.802;37.032;2022-12-07T15:25:26;100388.63;;;-3.22
67515;BMP280;60646;55.802;37.032;2022-12-07T15:27:52;100391.63;;;-3.20
67515;BMP280;60646;55.802;37.032;2022-12-07T15:30:18;100389.78;;;-3.19
67515;BMP280;60646;55.802;37.032;2022-12-07T15:32:48;100377.00;;;-3.24
67515;BMP280;60646;55.802;37.032;2022-12-07T15:35:14;100372.47;;;-3.31
67515;BMP280;60646;55.802;37.032;2022-12-07T15:37:40;100386.72;;;-3.25
67515;BMP280;60646;55.802;37.032;2022-12-07T15:40:07;100391.28;;;-3.18
67515;BMP280;60646;55.802;37.032;2022-12-07T15:42:33;100373.97;;;-3.30
67515;BMP280;60646;55.802;37.032;2022-12-07T15:44:58;100376.25;;;-3.28
67515;BMP280;60646;55.802;37.032;2022-12-07T15:47:33;100366.47;;;-3.35
67515;BMP280;60646;55.802;37.032;2022-12-07T15:49:59;100391.19;;;-3.25
67515;BMP280;60646;55.802;37.032;2022-12-07T15:52:25;100373.22;;;-3.30
67515;BMP280;60646;55.802;37.032;2022-12-07T15:54:50;100381.47;;;-3.25
67515;BMP280;60646;55.802;37.032;2022-12-07T15:57:16;100358.28;;;-3.37
67515;BMP280;60646;55.802;37.032;2022-12-07T15:59:42;100353.75;;;-3.40
67515;BMP280;60646;55.802;37.032;2022-12-07T16:02:09;100377.06;;;-3.21
67515;BMP280;60646;55.802;37.032;2022-12-07T16:04:36;100383.00;;;-3.24
67515;BMP280;60646;55.802;37.032;2022-12-07T16:07:02;100362.00;;;-3.34
67515;BMP280;60646;55.802;37.032;2022-12-07T16:09:28;100357.50;;;-3.41